createdAt,value
2022-11-05T00:00:36.744Z,86.60
2022-11-05T00:02:27.847Z,86.50
2022-11-05T00:04:18.374Z,86.60
2022-11-05T00:06:11.770Z,86.60
2022-11-05T00:08:06.547Z,86.50
2022-11-05T00:09:38.825Z,86.50
2022-11-05T00:11:16.872Z,86.50
2022-11-05T00:13:09.113Z,86.40
2022-11-05T00:14:59.827Z,86.30
2022-11-05T00:16:46.560Z,86.20
2022-11-05T00:18:18.394Z,86.20
2022-11-05T00:19:50.044Z,86.20
2022-11-05T00:21:40.528Z,86.20
2022-11-05T00:23:30.892Z,86.10
2022-11-05T00:25:14.703Z,86.10
2022-11-05T00:26:46.327Z,85.90
2022-11-05T00:28:18.571Z,86.10
2022-11-05T00:29:50.275Z,86.00
2022-11-05T00:31:21.888Z,86.20
2022-11-05T00:32:53.980Z,86.00
2022-11-05T00:34:25.673Z,85.90
2022-11-05T00:35:57.520Z,86.00
2022-11-05T00:37:29.173Z,86.00
2022-11-05T00:39:00.782Z,86.10
2022-11-05T00:40:32.416Z,86.00
2022-11-05T00:42:22.766Z,85.90
2022-11-05T00:44:13.172Z,85.80
2022-11-05T00:45:44.955Z,85.70
2022-11-05T00:47:35.213Z,85.60
2022-11-05T00:49:25.648Z,85.40
2022-11-05T00:50:57.268Z,85.40
2022-11-05T00:52:47.416Z,85.30
2022-11-05T00:54:19.028Z,85.10
2022-11-05T00:55:50.744Z,85.20
2022-11-05T00:57:22.418Z,85.40
2022-11-05T00:58:56.160Z,85.50
2022-11-05T01:00:30.245Z,85.40
2022-11-05T01:02:02.125Z,85.40
2022-11-05T01:03:36.040Z,85.40
2022-11-05T01:05:08.252Z,85.60
2022-11-05T01:06:39.970Z,85.60
2022-11-05T01:08:13.261Z,85.60
2022-11-05T01:09:44.941Z,85.50
2022-11-05T01:11:36.779Z,85.40
2022-11-05T01:13:13.006Z,85.50
2022-11-05T01:14:45.089Z,85.20
2022-11-05T01:16:16.689Z,85.20
2022-11-05T01:17:48.388Z,85.20
2022-11-05T01:19:20.001Z,85.30
2022-11-05T01:20:51.686Z,85.00
2022-11-05T01:22:23.366Z,85.00
2022-11-05T01:23:54.977Z,84.80
2022-11-05T01:25:26.649Z,84.70
2022-11-05T01:26:58.294Z,84.70
2022-11-05T01:28:30.079Z,84.50
2022-11-05T01:30:01.963Z,84.30
2022-11-05T01:31:33.625Z,84.30
2022-11-05T01:33:05.879Z,84.10
2022-11-05T01:34:37.567Z,84.30
2022-11-05T01:36:09.441Z,84.20
2022-11-05T01:37:41.343Z,84.10
2022-11-05T01:39:13.286Z,84.20
2022-11-05T01:40:45.311Z,83.90
2022-11-05T01:42:25.717Z,83.90
2022-11-05T01:44:03.131Z,84.00
2022-11-05T01:45:35.001Z,83.90
2022-11-05T01:47:11.559Z,84.00
2022-11-05T01:48:43.359Z,84.00
2022-11-05T01:50:30.670Z,83.90
2022-11-05T01:52:04.213Z,83.80
2022-11-05T01:53:53.380Z,84.10
2022-11-05T01:55:29.939Z,84.00
2022-11-05T01:57:07.178Z,84.10
2022-11-05T01:59:16.335Z,84.00
2022-11-05T02:00:48.605Z,84.00
2022-11-05T02:02:20.659Z,83.80
2022-11-05T02:03:55.908Z,83.90
2022-11-05T02:05:28.110Z,84.00
2022-11-05T02:07:00.049Z,84.20
2022-11-05T02:08:50.652Z,84.30
2022-11-05T02:10:22.757Z,84.50
2022-11-05T02:11:54.400Z,84.70
2022-11-05T02:13:25.990Z,84.90
2022-11-05T02:14:57.818Z,85.00
2022-11-05T02:16:45.603Z,85.00
2022-11-05T02:18:44.103Z,85.10
2022-11-05T02:20:18.688Z,85.20
2022-11-05T02:22:11.946Z,85.10
2022-11-05T02:23:49.404Z,85.20
2022-11-05T02:25:38.003Z,85.20
2022-11-05T02:27:41.725Z,85.00
2022-11-05T02:29:38.436Z,84.80
2022-11-05T02:31:28.833Z,84.70
2022-11-05T02:33:03.521Z,84.70
2022-11-05T02:34:49.969Z,84.90
2022-11-05T02:36:47.769Z,84.70
2022-11-05T02:38:42.593Z,84.60
2022-11-05T02:40:33.934Z,84.50
2022-11-05T02:42:38.371Z,84.40
2022-11-05T02:44:30.222Z,84.30
2022-11-05T02:46:20.610Z,84.40
2022-11-05T02:48:01.167Z,84.60
2022-11-05T02:50:14.339Z,84.60
2022-11-05T02:52:08.646Z,84.40
2022-11-05T02:54:01.873Z,84.70
2022-11-05T02:55:36.927Z,84.90
2022-11-05T02:57:08.721Z,84.80
2022-11-05T02:58:40.405Z,84.80
2022-11-05T03:00:37.133Z,84.70
2022-11-05T03:02:08.946Z,84.80
2022-11-05T03:03:44.362Z,84.90
2022-11-05T03:05:16.102Z,84.80
2022-11-05T03:07:07.222Z,84.80
2022-11-05T03:09:09.928Z,84.90
2022-11-05T03:11:05.177Z,85.10
2022-11-05T03:13:15.021Z,85.00
2022-11-05T03:15:05.437Z,85.20
2022-11-05T03:16:49.608Z,85.10
2022-11-05T03:18:40.114Z,85.00
2022-11-05T03:20:30.758Z,85.10
2022-11-05T03:22:11.243Z,85.20
2022-11-05T03:23:49.567Z,85.40
2022-11-05T03:25:24.356Z,85.50
2022-11-05T03:27:00.469Z,85.50
2022-11-05T03:28:35.836Z,85.50
2022-11-05T03:30:10.601Z,85.50
2022-11-05T03:31:44.910Z,85.60
2022-11-05T03:33:22.058Z,85.50
2022-11-05T03:35:01.596Z,85.50
2022-11-05T03:36:46.989Z,85.60
2022-11-05T03:38:32.755Z,85.50
2022-11-05T03:40:08.311Z,85.50
2022-11-05T03:41:43.228Z,85.40
2022-11-05T03:43:16.256Z,85.60
2022-11-05T03:44:52.374Z,85.70
2022-11-05T03:46:38.531Z,85.80
2022-11-05T03:48:12.627Z,85.90
2022-11-05T03:49:50.511Z,85.80
2022-11-05T03:51:31.035Z,85.80
2022-11-05T03:53:24.899Z,86.10
2022-11-05T03:54:56.677Z,86.10
2022-11-05T03:56:41.742Z,86.10
2022-11-05T03:58:14.386Z,86.20
2022-11-05T03:59:48.954Z,86.20
2022-11-05T04:01:20.786Z,86.10
2022-11-05T04:02:52.709Z,86.20
2022-11-05T04:04:24.974Z,86.30
2022-11-05T04:06:15.570Z,86.40
2022-11-05T04:08:08.770Z,86.30
2022-11-05T04:10:03.507Z,86.40
2022-11-05T04:11:55.199Z,86.30
2022-11-05T04:13:27.761Z,86.30
2022-11-05T04:14:59.381Z,86.50
2022-11-05T04:16:49.702Z,86.50
2022-11-05T04:18:21.490Z,86.30
2022-11-05T04:20:11.546Z,86.40
2022-11-05T04:22:01.994Z,86.30
2022-11-05T04:24:03.130Z,86.50
2022-11-05T04:25:34.770Z,86.40
2022-11-05T04:27:07.510Z,86.60
2022-11-05T04:28:57.837Z,86.50
2022-11-05T04:30:29.546Z,86.60
2022-11-05T04:32:01.154Z,86.60
2022-11-05T04:33:32.798Z,86.50
2022-11-05T04:35:04.642Z,86.50
2022-11-05T04:36:36.334Z,86.60
2022-11-05T04:38:11.061Z,86.50
2022-11-05T04:39:42.725Z,86.50
2022-11-05T04:41:17.698Z,86.50
2022-11-05T04:42:49.455Z,86.50
2022-11-05T04:44:21.121Z,86.50
2022-11-05T04:45:52.868Z,86.50
2022-11-05T04:47:24.561Z,86.30
2022-11-05T04:48:56.221Z,86.40
2022-11-05T04:50:28.175Z,86.30
2022-11-05T04:51:59.830Z,86.30
2022-11-05T04:53:31.463Z,86.50
2022-11-05T04:55:03.763Z,86.50
2022-11-05T04:56:35.491Z,86.50
2022-11-05T04:58:07.204Z,86.60
2022-11-05T04:59:39.020Z,86.40
2022-11-05T05:01:13.915Z,86.60
2022-11-05T05:02:46.271Z,86.50
2022-11-05T05:04:17.988Z,86.50
2022-11-05T05:05:52.976Z,86.60
2022-11-05T05:07:26.504Z,86.40
2022-11-05T05:08:58.226Z,86.60
2022-11-05T05:10:30.111Z,86.60
2022-11-05T05:12:02.483Z,86.70
2022-11-05T05:13:34.593Z,86.80
2022-11-05T05:15:06.675Z,86.60
2022-11-05T05:16:38.358Z,86.70
2022-11-05T05:18:09.968Z,86.70
2022-11-05T05:20:00.245Z,86.80
2022-11-05T05:21:41.409Z,86.60
2022-11-05T05:23:13.251Z,86.50
2022-11-05T05:24:49.949Z,86.70
2022-11-05T05:26:24.254Z,86.40
2022-11-05T05:27:59.196Z,86.60
2022-11-05T05:29:30.900Z,86.70
2022-11-05T05:31:02.677Z,86.60
2022-11-05T05:32:34.320Z,86.60
2022-11-05T05:34:07.157Z,86.80
2022-11-05T05:35:38.747Z,86.80
2022-11-05T05:37:10.428Z,86.80
2022-11-05T05:38:41.988Z,86.70
2022-11-05T05:40:13.675Z,86.70
2022-11-05T05:41:45.285Z,86.70
2022-11-05T05:43:17.101Z,86.70
2022-11-05T05:44:48.909Z,86.70
2022-11-05T05:46:20.676Z,86.70
2022-11-05T05:47:54.891Z,86.70
2022-11-05T05:49:26.512Z,86.60
2022-11-05T05:51:10.508Z,86.60
2022-11-05T05:52:42.211Z,86.50
2022-11-05T05:54:14.143Z,86.70
2022-11-05T05:55:45.734Z,86.50
2022-11-05T05:57:17.338Z,86.40
2022-11-05T05:58:48.944Z,86.50
2022-11-05T06:00:20.897Z,86.40
2022-11-05T06:01:52.629Z,86.50
2022-11-05T06:03:24.333Z,86.30
2022-11-05T06:04:55.946Z,86.40
2022-11-05T06:06:27.662Z,86.40
2022-11-05T06:07:59.334Z,86.40
2022-11-05T06:09:30.938Z,86.60
2022-11-05T06:11:03.984Z,86.40
2022-11-05T06:12:35.875Z,86.40
2022-11-05T06:14:10.403Z,86.50
2022-11-05T06:15:42.054Z,86.50
2022-11-05T06:17:13.862Z,86.40
2022-11-05T06:18:45.749Z,86.50
2022-11-05T06:20:17.511Z,86.80
2022-11-05T06:21:49.136Z,86.70
2022-11-05T06:23:20.755Z,86.50
2022-11-05T06:24:52.366Z,86.60
2022-11-05T06:26:24.079Z,86.40
2022-11-05T06:27:55.755Z,86.50
2022-11-05T06:29:27.370Z,86.60
2022-11-05T06:30:59.582Z,86.60
2022-11-05T06:32:31.430Z,86.70
2022-11-05T06:34:03.079Z,86.70
2022-11-05T06:35:34.729Z,86.60
2022-11-05T06:37:06.346Z,86.60
2022-11-05T06:38:37.955Z,86.70
2022-11-05T06:40:09.894Z,86.60
2022-11-05T06:43:33.214Z,86.80
2022-11-05T06:45:05.369Z,86.80
2022-11-05T06:46:42.256Z,86.90
2022-11-05T06:48:17.533Z,86.90
2022-11-05T06:49:49.569Z,86.80
2022-11-05T06:51:21.421Z,86.80
2022-11-05T06:53:03.693Z,86.70
2022-11-05T06:54:35.692Z,86.80
2022-11-05T06:56:08.294Z,86.70
2022-11-05T06:57:39.881Z,86.80
2022-11-05T06:59:11.677Z,86.80
2022-11-05T07:00:43.443Z,86.80
2022-11-05T07:02:16.920Z,86.80
2022-11-05T07:03:49.493Z,86.80
2022-11-05T07:05:21.903Z,86.80
2022-11-05T07:06:53.521Z,86.90
2022-11-05T07:08:25.232Z,87.00
2022-11-05T07:09:57.956Z,86.90
2022-11-05T07:11:29.606Z,86.90
2022-11-05T07:13:05.151Z,86.90
2022-11-05T07:14:39.725Z,87.00
2022-11-05T07:16:11.395Z,87.10
2022-11-05T07:17:43.036Z,87.10
2022-11-05T07:19:14.671Z,87.20
2022-11-05T07:20:46.518Z,87.00
2022-11-05T07:22:18.304Z,87.00
2022-11-05T07:23:50.148Z,87.20
2022-11-05T07:25:21.778Z,87.20
2022-11-05T07:26:53.440Z,87.20
2022-11-05T07:28:25.075Z,87.30
2022-11-05T07:29:56.808Z,87.40
2022-11-05T07:31:28.421Z,87.40
2022-11-05T07:33:00.392Z,87.50
2022-11-05T07:34:32.403Z,87.60
2022-11-05T07:36:04.350Z,87.50
2022-11-05T07:37:50.059Z,87.60
2022-11-05T07:39:21.769Z,87.80
2022-11-05T07:40:53.443Z,87.80
2022-11-05T07:42:25.084Z,87.70
2022-11-05T07:43:56.887Z,87.80
2022-11-05T07:45:30.724Z,87.80
2022-11-05T07:47:02.360Z,88.00
2022-11-05T07:48:33.992Z,88.00
2022-11-05T07:50:07.960Z,88.20
2022-11-05T07:51:39.588Z,88.20
2022-11-05T07:53:14.219Z,88.30
2022-11-05T07:54:46.161Z,88.30
2022-11-05T07:56:17.879Z,88.30
2022-11-05T07:57:50.973Z,88.50
2022-11-05T07:59:22.672Z,88.50
2022-11-05T08:00:54.452Z,88.50
2022-11-05T08:02:26.488Z,88.50
2022-11-05T08:03:58.320Z,88.50
2022-11-05T08:05:30.635Z,88.50
2022-11-05T08:07:02.273Z,88.60
2022-11-05T08:08:33.989Z,88.70
2022-11-05T08:10:06.162Z,88.80
2022-11-05T08:11:37.921Z,88.80
2022-11-05T08:13:10.651Z,88.90
2022-11-05T08:14:42.793Z,89.00
2022-11-05T08:16:15.401Z,89.10
2022-11-05T08:17:47.189Z,89.10
2022-11-05T08:19:18.870Z,89.20
2022-11-05T08:20:50.481Z,89.30
2022-11-05T08:22:22.114Z,89.40
2022-11-05T08:23:53.803Z,89.30
2022-11-05T08:25:26.077Z,89.40
2022-11-05T08:26:57.762Z,89.50
2022-11-05T08:28:29.585Z,89.60
2022-11-05T08:30:01.237Z,89.60
2022-11-05T08:31:32.909Z,89.50
2022-11-05T08:33:13.165Z,89.70
2022-11-05T08:34:45.418Z,89.80
2022-11-05T08:36:17.034Z,90.30
2022-11-05T08:37:48.681Z,90.10
2022-11-05T08:39:20.317Z,90.50
2022-11-05T08:40:57.729Z,90.40
2022-11-05T08:42:29.353Z,90.70
2022-11-05T08:44:00.954Z,90.70
2022-11-05T08:45:33.899Z,90.70
2022-11-05T08:47:05.576Z,90.70
2022-11-05T08:48:37.234Z,90.90
2022-11-05T08:50:09.217Z,91.10
2022-11-05T08:51:40.888Z,91.00
2022-11-05T08:53:13.569Z,90.90
2022-11-05T08:54:45.538Z,90.70
2022-11-05T08:56:17.252Z,90.80
2022-11-05T08:57:48.889Z,91.00
2022-11-05T08:59:20.710Z,90.90
2022-11-05T09:00:52.510Z,91.20
2022-11-05T09:02:24.341Z,91.30
2022-11-05T09:03:56.141Z,91.60
2022-11-05T09:05:29.399Z,91.60
2022-11-05T09:07:01.255Z,91.40
2022-11-05T09:08:33.141Z,91.50
2022-11-05T09:10:05.410Z,91.60
2022-11-05T09:12:05.181Z,91.60
2022-11-05T09:13:29.395Z,91.90
2022-11-05T09:15:01.046Z,91.80
2022-11-05T09:16:34.253Z,92.00
2022-11-05T09:18:05.890Z,91.90
2022-11-05T09:19:39.991Z,92.00
2022-11-05T09:21:11.878Z,92.10
2022-11-05T09:22:43.783Z,92.00
2022-11-05T09:24:15.570Z,91.90
2022-11-05T09:25:47.266Z,91.90
2022-11-05T09:27:18.914Z,92.00
2022-11-05T09:28:50.619Z,92.10
2022-11-05T09:30:22.293Z,91.90
2022-11-05T09:31:53.914Z,92.00
2022-11-05T09:33:26.733Z,91.90
2022-11-05T09:35:00.285Z,91.80
2022-11-05T09:36:32.073Z,91.90
2022-11-05T09:38:03.770Z,91.80
2022-11-05T09:39:35.397Z,91.80
2022-11-05T09:41:19.614Z,91.80
2022-11-05T09:42:54.819Z,91.80
2022-11-05T09:44:48.781Z,91.80
2022-11-05T09:46:27.040Z,91.70
2022-11-05T09:48:09.873Z,91.80
2022-11-05T09:49:47.989Z,91.60
2022-11-05T09:51:24.096Z,91.60
2022-11-05T09:52:56.426Z,91.90
2022-11-05T09:54:31.574Z,91.90
2022-11-05T09:56:03.573Z,91.90
2022-11-05T09:57:50.301Z,92.10
2022-11-05T09:59:28.145Z,92.10
2022-11-05T10:01:00.279Z,92.30
2022-11-05T10:02:48.359Z,92.20
2022-11-05T10:04:23.561Z,92.20
2022-11-05T10:06:08.336Z,92.30
2022-11-05T10:07:45.227Z,92.00
2022-11-05T10:09:40.050Z,91.80
2022-11-05T10:11:19.619Z,91.50
2022-11-05T10:12:55.027Z,91.80
2022-11-05T10:14:36.359Z,92.10
2022-11-05T10:16:20.018Z,92.10
2022-11-05T10:17:57.699Z,92.30
2022-11-05T10:19:53.919Z,91.90
2022-11-05T10:21:51.566Z,91.80
2022-11-05T10:23:21.928Z,91.80
2022-11-05T10:24:54.752Z,91.70
2022-11-05T10:26:27.799Z,91.50
2022-11-05T10:28:00.093Z,91.30
2022-11-05T10:29:34.265Z,91.30
2022-11-05T10:31:14.348Z,91.10
2022-11-05T10:32:47.795Z,91.30
2022-11-05T10:34:20.991Z,91.00
2022-11-05T10:35:59.233Z,91.10
2022-11-05T10:37:31.817Z,91.20
2022-11-05T10:39:29.889Z,91.40
2022-11-05T10:41:22.304Z,91.40
2022-11-05T10:43:00.887Z,91.50
2022-11-05T10:44:47.497Z,91.90
2022-11-05T10:46:36.734Z,91.60
2022-11-05T10:48:30.335Z,91.50
2022-11-05T10:50:08.362Z,91.60
2022-11-05T10:51:40.050Z,91.60
2022-11-05T10:53:19.154Z,91.40
2022-11-05T10:54:54.880Z,91.30
2022-11-05T10:56:36.021Z,91.20
2022-11-05T10:58:11.237Z,91.20
2022-11-05T10:59:42.911Z,91.40
2022-11-05T11:01:14.675Z,91.30
2022-11-05T11:02:49.454Z,91.40
2022-11-05T11:04:24.706Z,91.30
2022-11-05T11:06:25.981Z,91.20
2022-11-05T11:08:00.112Z,90.90
2022-11-05T11:09:35.583Z,90.80
2022-11-05T11:11:11.383Z,90.70
2022-11-05T11:12:43.457Z,90.30
2022-11-05T11:14:15.037Z,90.30
2022-11-05T11:15:46.806Z,90.30
2022-11-05T11:17:27.598Z,90.50
2022-11-05T11:19:01.039Z,90.60
2022-11-05T11:20:33.189Z,90.50
2022-11-05T11:22:04.847Z,90.30
2022-11-05T11:23:38.978Z,90.50
2022-11-05T11:25:29.038Z,90.50
2022-11-05T11:27:10.833Z,90.30
2022-11-05T11:28:56.800Z,90.20
2022-11-05T11:30:28.585Z,90.40
2022-11-05T11:32:00.345Z,90.30
2022-11-05T11:33:33.880Z,90.20
2022-11-05T11:35:08.852Z,90.20
2022-11-05T11:36:46.623Z,89.90
2022-11-05T11:38:18.548Z,90.10
2022-11-05T11:40:02.558Z,90.30
2022-11-05T11:41:41.880Z,90.30
2022-11-05T11:43:33.058Z,90.30
2022-11-05T11:45:17.769Z,90.10
2022-11-05T11:46:52.131Z,90.00
2022-11-05T11:48:31.260Z,89.80
2022-11-05T11:50:03.144Z,89.70
2022-11-05T11:51:45.649Z,89.50
2022-11-05T11:53:28.203Z,89.60
2022-11-05T11:55:11.789Z,89.10
2022-11-05T11:56:45.997Z,88.90
2022-11-05T11:58:17.973Z,88.60
2022-11-05T12:01:52.041Z,88.80
2022-11-05T12:03:37.671Z,88.70
2022-11-05T12:05:40.645Z,88.60
2022-11-05T12:07:30.385Z,88.50
2022-11-05T12:09:25.846Z,88.20
2022-11-05T12:11:19.153Z,88.40
2022-11-05T12:13:03.988Z,88.60
2022-11-05T12:14:46.573Z,88.60
2022-11-05T12:16:29.729Z,88.70
2022-11-05T12:18:19.601Z,88.80
2022-11-05T12:20:04.106Z,89.00
2022-11-05T12:21:58.610Z,88.90
2022-11-05T12:23:30.229Z,88.80
2022-11-05T12:25:15.484Z,88.50
2022-11-05T12:27:02.206Z,88.50
2022-11-05T12:29:16.700Z,88.40
2022-11-05T12:30:54.240Z,88.40
2022-11-05T12:32:49.055Z,88.30
2022-11-05T12:34:52.474Z,88.30
2022-11-05T12:36:39.133Z,87.80
2022-11-05T12:38:38.413Z,87.60
2022-11-05T12:40:31.474Z,87.60
2022-11-05T12:42:14.634Z,87.40
2022-11-05T12:43:52.256Z,87.40
2022-11-05T12:45:46.945Z,87.40
2022-11-05T12:47:31.130Z,87.20
2022-11-05T12:49:30.761Z,87.20
2022-11-05T12:51:38.800Z,87.30
2022-11-05T12:53:49.270Z,87.40
2022-11-05T12:55:28.574Z,87.30
2022-11-05T12:57:03.564Z,87.50
2022-11-05T12:58:40.319Z,87.20
2022-11-05T13:00:15.421Z,87.30
2022-11-05T13:01:55.776Z,87.30
2022-11-05T13:03:50.540Z,87.60
2022-11-05T13:05:45.198Z,87.70
2022-11-05T13:07:24.076Z,87.70
2022-11-05T13:09:13.285Z,87.70
2022-11-05T13:10:51.826Z,88.00
2022-11-05T13:12:27.380Z,87.80
2022-11-05T13:14:25.212Z,87.70
2022-11-05T13:16:03.253Z,87.50
2022-11-05T13:17:47.467Z,87.50
2022-11-05T13:19:31.891Z,87.40
2022-11-05T13:21:07.205Z,87.30
2022-11-05T13:22:46.064Z,87.20
2022-11-05T13:24:24.071Z,87.10
2022-11-05T13:26:07.675Z,87.00
2022-11-05T13:27:50.303Z,87.10
2022-11-05T13:29:43.691Z,87.30
2022-11-05T13:31:20.454Z,87.20
2022-11-05T13:33:01.894Z,87.20
2022-11-05T13:34:37.405Z,87.10
2022-11-05T13:36:33.811Z,87.00
2022-11-05T13:38:27.422Z,87.10
2022-11-05T13:40:03.368Z,87.10
2022-11-05T13:42:02.429Z,87.10
2022-11-05T13:44:01.221Z,87.20
2022-11-05T13:45:55.317Z,87.20
2022-11-05T13:48:04.251Z,87.20
2022-11-05T13:49:54.851Z,87.10
2022-11-05T13:51:43.923Z,87.20
2022-11-05T13:53:39.468Z,87.20
2022-11-05T13:55:35.948Z,87.20
2022-11-05T13:57:41.598Z,87.30
2022-11-05T13:59:28.939Z,87.00
2022-11-05T14:01:22.042Z,86.90
2022-11-05T14:02:56.472Z,86.90
2022-11-05T14:05:01.246Z,86.90
2022-11-05T14:06:36.334Z,87.00
2022-11-05T14:08:17.263Z,86.80
2022-11-05T14:10:01.375Z,86.70
2022-11-05T14:11:42.677Z,86.50
2022-11-05T14:13:20.028Z,86.50
2022-11-05T14:14:58.879Z,86.50
2022-11-05T14:16:51.586Z,86.40
2022-11-05T14:18:44.206Z,86.30
2022-11-05T14:20:33.036Z,86.50
2022-11-05T14:22:32.384Z,86.50
2022-11-05T14:24:22.409Z,86.40
2022-11-05T14:25:55.599Z,86.40
2022-11-05T14:27:53.761Z,86.40
2022-11-05T14:29:36.036Z,86.50
2022-11-05T14:31:19.898Z,86.50
2022-11-05T14:32:53.016Z,86.70
2022-11-05T14:34:43.855Z,86.70
2022-11-05T14:36:35.776Z,86.70
2022-11-05T14:38:20.128Z,86.60
2022-11-05T14:39:53.973Z,86.60
2022-11-05T14:41:25.675Z,86.70
2022-11-05T14:43:00.836Z,86.70
2022-11-05T14:44:35.230Z,86.60
2022-11-05T14:46:07.385Z,86.60
2022-11-05T14:47:50.574Z,86.60
2022-11-05T14:49:26.987Z,86.70
2022-11-05T14:50:59.476Z,86.70
2022-11-05T14:52:32.101Z,86.70
2022-11-05T14:54:13.509Z,86.70
2022-11-05T14:55:45.757Z,86.80
2022-11-05T14:57:55.636Z,86.90
2022-11-05T14:59:28.222Z,86.90
2022-11-05T15:01:02.004Z,86.90
2022-11-05T15:02:38.179Z,86.90
2022-11-05T15:04:35.430Z,86.60
2022-11-05T15:06:22.542Z,86.70
2022-11-05T15:07:57.690Z,86.80
2022-11-05T15:09:41.170Z,86.80
2022-11-05T15:11:18.334Z,86.90
2022-11-05T15:13:01.596Z,86.70
2022-11-05T15:14:48.940Z,86.80
2022-11-05T15:16:34.952Z,86.80
2022-11-05T15:18:36.728Z,86.50
2022-11-05T15:20:23.645Z,86.40
2022-11-05T15:21:59.381Z,86.60
2022-11-05T15:23:38.958Z,86.60
2022-11-05T15:25:24.910Z,86.70
2022-11-05T15:27:21.894Z,86.60
2022-11-05T15:28:55.040Z,86.70
2022-11-05T15:30:26.718Z,86.60
2022-11-05T15:31:58.819Z,86.40
2022-11-05T15:33:31.423Z,86.40
2022-11-05T15:35:03.210Z,86.70
2022-11-05T15:36:35.170Z,86.40
2022-11-05T15:38:33.985Z,86.60
2022-11-05T15:40:23.959Z,86.70
2022-11-05T15:41:56.196Z,86.70
2022-11-05T15:43:28.086Z,86.80
2022-11-05T15:45:02.402Z,86.70
2022-11-05T15:46:34.054Z,86.80
2022-11-05T15:48:18.658Z,87.10
2022-11-05T15:50:01.879Z,86.60
2022-11-05T15:51:35.438Z,86.70
2022-11-05T15:53:47.413Z,87.00
2022-11-05T15:55:25.295Z,87.30
2022-11-05T15:56:58.848Z,86.40
2022-11-05T15:58:30.540Z,86.90
2022-11-05T16:00:07.823Z,87.20
2022-11-05T16:02:01.829Z,87.20
2022-11-05T16:03:38.042Z,87.00
2022-11-05T16:05:13.494Z,87.20
2022-11-05T16:06:47.838Z,87.30
2022-11-05T16:08:23.011Z,87.40
2022-11-05T16:09:56.605Z,87.30
2022-11-05T16:11:28.539Z,87.40
2022-11-05T16:13:22.129Z,87.30
2022-11-05T16:15:01.162Z,87.60
2022-11-05T16:16:34.086Z,87.60
2022-11-05T16:18:22.481Z,87.70
2022-11-05T16:19:54.542Z,87.80
2022-11-05T16:21:26.474Z,87.40
2022-11-05T16:23:04.293Z,87.50
2022-11-05T16:24:36.207Z,87.90
2022-11-05T16:26:55.984Z,87.80
2022-11-05T16:28:23.283Z,87.70
2022-11-05T16:29:57.094Z,87.70
2022-11-05T16:31:32.329Z,87.50
2022-11-05T16:33:06.653Z,87.80
2022-11-05T16:34:45.482Z,87.50
2022-11-05T16:36:17.553Z,87.80
2022-11-05T16:37:52.235Z,87.90
2022-11-05T16:39:24.674Z,87.90
2022-11-05T16:40:56.398Z,88.10
2022-11-05T16:42:33.999Z,88.10
2022-11-05T16:44:05.638Z,88.00
2022-11-05T16:45:41.336Z,87.80
2022-11-05T16:47:13.102Z,87.60
2022-11-05T16:48:44.753Z,87.90
2022-11-05T16:50:25.494Z,87.70
2022-11-05T16:51:59.670Z,87.80
2022-11-05T16:53:31.275Z,87.60
2022-11-05T16:55:02.975Z,88.00
2022-11-05T16:56:35.030Z,88.20
2022-11-05T16:58:15.002Z,88.10
2022-11-05T16:59:46.690Z,87.90
2022-11-05T17:01:21.156Z,88.10
2022-11-05T17:02:53.627Z,88.10
2022-11-05T17:04:25.626Z,88.20
2022-11-05T17:05:57.265Z,87.70
2022-11-05T17:07:28.952Z,88.00
2022-11-05T17:09:00.536Z,87.90
2022-11-05T17:10:32.211Z,88.00
2022-11-05T17:12:04.127Z,87.90
2022-11-05T17:13:35.859Z,88.20
2022-11-05T17:15:25.474Z,88.20
2022-11-05T17:17:00.505Z,88.40
2022-11-05T17:18:32.115Z,88.30
2022-11-05T17:20:04.060Z,88.30
2022-11-05T17:21:36.582Z,88.40
2022-11-05T17:23:14.115Z,87.90
2022-11-05T17:24:46.187Z,88.50
2022-11-05T17:26:17.848Z,88.30
2022-11-05T17:27:50.127Z,88.60
2022-11-05T17:29:21.806Z,88.80
2022-11-05T17:30:53.497Z,88.80
2022-11-05T17:32:25.182Z,89.00
2022-11-05T17:33:58.206Z,88.70
2022-11-05T17:35:29.871Z,88.40
2022-11-05T17:37:01.546Z,88.40
2022-11-05T17:38:33.643Z,88.70
2022-11-05T17:40:07.627Z,88.80
2022-11-05T17:41:39.498Z,89.00
2022-11-05T17:43:11.657Z,88.70
2022-11-05T17:44:43.477Z,88.40
2022-11-05T17:46:16.789Z,88.80
2022-11-05T17:47:48.401Z,88.50
2022-11-05T17:49:20.009Z,88.40
2022-11-05T17:50:51.764Z,88.60
2022-11-05T17:52:23.565Z,88.50
2022-11-05T17:53:55.263Z,88.70
2022-11-05T17:55:26.976Z,88.40
2022-11-05T17:56:58.558Z,88.30
2022-11-05T17:58:30.400Z,88.20
2022-11-05T18:00:02.096Z,88.60
2022-11-05T18:01:43.541Z,88.70
2022-11-05T18:03:15.822Z,88.80
2022-11-05T18:04:47.620Z,88.40
2022-11-05T18:06:19.323Z,88.10
2022-11-05T18:07:51.414Z,88.40
2022-11-05T18:09:23.048Z,88.40
2022-11-05T18:10:54.781Z,88.00
2022-11-05T18:12:26.425Z,88.70
2022-11-05T18:13:58.141Z,88.70
2022-11-05T18:15:29.809Z,88.40
2022-11-05T18:17:01.716Z,87.80
2022-11-05T18:18:33.358Z,88.10
2022-11-05T18:20:11.701Z,87.80
2022-11-05T18:21:45.957Z,87.90
2022-11-05T18:23:17.837Z,88.00
2022-11-05T18:24:49.635Z,87.80
2022-11-05T18:26:21.512Z,88.10
2022-11-05T18:27:53.226Z,88.20
2022-11-05T18:29:24.978Z,88.70
2022-11-05T18:30:56.685Z,88.20
2022-11-05T18:32:28.429Z,88.50
2022-11-05T18:34:00.253Z,88.50
2022-11-05T18:35:31.921Z,88.60
2022-11-05T18:37:03.740Z,88.40
2022-11-05T18:38:35.379Z,88.00
2022-11-05T18:40:07.785Z,88.50
2022-11-05T18:41:39.589Z,88.40
2022-11-05T18:43:12.667Z,88.30
2022-11-05T18:44:44.881Z,88.20
2022-11-05T18:46:43.244Z,88.20
2022-11-05T18:48:09.815Z,88.50
2022-11-05T18:49:42.813Z,87.50
2022-11-05T18:51:15.646Z,88.50
2022-11-05T18:52:47.394Z,88.80
2022-11-05T18:54:19.298Z,88.80
2022-11-05T18:55:50.930Z,88.60
2022-11-05T18:57:22.520Z,88.70
2022-11-05T18:59:14.585Z,88.40
2022-11-05T19:00:45.868Z,88.30
2022-11-05T19:02:18.104Z,88.80
2022-11-05T19:03:51.392Z,88.80
2022-11-05T19:05:28.959Z,88.90
2022-11-05T19:07:04.736Z,88.80
2022-11-05T19:08:37.267Z,88.90
2022-11-05T19:10:09.360Z,88.90
2022-11-05T19:11:41.327Z,88.90
2022-11-05T19:13:13.914Z,89.00
2022-11-05T19:14:45.830Z,88.90
2022-11-05T19:16:21.612Z,89.00
2022-11-05T19:17:53.225Z,89.30
2022-11-05T19:19:25.471Z,88.70
2022-11-05T19:20:57.079Z,89.40
2022-11-05T19:22:28.822Z,89.40
2022-11-05T19:24:01.960Z,89.50
2022-11-05T19:25:33.674Z,89.50
2022-11-05T19:27:08.383Z,89.80
2022-11-05T19:28:40.803Z,89.90
2022-11-05T19:30:12.576Z,89.80
2022-11-05T19:31:44.325Z,90.10
2022-11-05T19:33:15.951Z,90.20
2022-11-05T19:34:47.587Z,89.70
2022-11-05T19:36:21.024Z,89.90
2022-11-05T19:37:53.407Z,89.20
2022-11-05T19:39:25.047Z,89.80
2022-11-05T19:40:56.708Z,89.30
2022-11-05T19:42:28.317Z,89.60
2022-11-05T19:44:01.625Z,90.20
2022-11-05T19:45:48.809Z,90.00
2022-11-05T19:47:20.436Z,89.30
2022-11-05T19:48:52.571Z,89.10
2022-11-05T19:50:24.264Z,89.70
2022-11-05T19:51:55.976Z,88.60
2022-11-05T19:53:27.637Z,89.30
2022-11-05T19:54:59.439Z,89.20
2022-11-05T19:56:34.207Z,89.50
2022-11-05T19:58:05.992Z,89.00
2022-11-05T19:59:37.619Z,89.60
2022-11-05T20:01:10.364Z,89.30
2022-11-05T20:02:45.809Z,89.40
2022-11-05T20:04:17.551Z,89.70
2022-11-05T20:05:49.720Z,89.60
2022-11-05T20:07:21.568Z,89.60
2022-11-05T20:09:19.864Z,89.80
2022-11-05T20:10:46.143Z,89.80
2022-11-05T20:12:17.836Z,89.30
2022-11-05T20:13:49.520Z,89.60
2022-11-05T20:15:21.228Z,89.40
2022-11-05T20:16:53.609Z,89.80
2022-11-05T20:18:26.101Z,89.10
2022-11-05T20:19:57.973Z,89.20
2022-11-05T20:21:30.020Z,89.40
2022-11-05T20:23:01.679Z,89.10
2022-11-05T20:24:33.354Z,89.80
2022-11-05T20:26:06.423Z,90.00
2022-11-05T20:27:39.034Z,90.10
2022-11-05T20:29:12.823Z,89.50
2022-11-05T20:30:44.424Z,90.00
2022-11-05T20:32:16.082Z,90.30
2022-11-05T20:33:48.253Z,90.10
2022-11-05T20:35:19.933Z,89.80
2022-11-05T20:36:51.611Z,90.10
2022-11-05T20:38:23.329Z,89.70
2022-11-05T20:39:54.963Z,89.90
2022-11-05T20:41:26.733Z,88.50
2022-11-05T20:42:58.529Z,89.40
2022-11-05T20:44:30.233Z,89.40
2022-11-05T20:46:02.161Z,89.70
2022-11-05T20:47:34.261Z,89.60
2022-11-05T20:49:06.204Z,90.00
2022-11-05T20:50:45.233Z,89.80
2022-11-05T20:52:17.213Z,89.90
2022-11-05T20:53:49.215Z,89.40
2022-11-05T20:55:20.906Z,89.60
2022-11-05T20:56:52.497Z,89.90
2022-11-05T20:58:27.179Z,89.10